Pagina principală
METAR-TAF:

METAR-TAF

Aeroporturi :

Middleton Field

Evergreen, Alabama, Statele Unite ale Americii

Latitudine: 31-25-08N, longitudine: 087-02-53W, elevație: 78 m

Observații meteo curente

Raportul a fost făcut în urmă cu 1 oră și 9 de minute, la 21:53 UTC
Vânt 7 kt de la Sud-vest
Temperatură 35°C
Umiditate 34%
Presiune 1015 hPa
Vizibilitate: 16.1 km
Cer senin

METAR: KGZH 222153Z AUTO 23007KT 10SM CLR 35/17 A2998 RMK AO2 SLP146 T03500172

Ora: 18:02 (23:02 UTC)


TAF: lipsă

Observații și prognoze meteo pentru peste 4.000 de aeroporturi (rapoarte METAR și TAF).

Stațiile disponibile sunt reprezentate pe hartă prin puncte galbene și roșii.

Țineți indicatorul mouse-ului pe punctul dorit pentru a vedea denumirea stației.

Apoi, faceți clic pentru a vedea observațiile și prognozele meteorologice.

Pentru a schimba harta: Pentru mărire, faceți clic pe butoanele verzi cu cruce neagră; pentru micșorare, pe butonul verde cu o liniuță; pentru hărți învecinate, pe săgețile verzi.


METAR-TAF: